Main page
METAR-TAF:

METAR-TAF

Airports :

Malmö Airport

Malmö, Sweden

latitude: 55-33N, longitude: 013-22E, elevation: 106 m

Current weather observation

The report was made 28 minutes ago, at 05:50 UTC
Wind 4 kt from the South/Southeast
Temperature 16°C
Humidity 88%
Pressure 1012 hPa
Visibility 10 km or more
no clouds below 1500 m and no cumulonimbus

METAR: ESMS 150550Z 16004KT CAVOK 16/14 Q1012

Time: 08:18 (06:18 UTC)

Forecast

The report was made 1 hour and 17 minutes ago, at 05:01 UTC
Forecast valid from 15 at 06 UTC to 16 at 06 UTC
Wind 10 kt from the South/Southeast
Visibility 10 km or more
no clouds below 1500 m and no cumulonimbus
Becoming
from 15 at 06 UTC to 15 at 07 UTC
Wind 10 kt from the South/Southwest
Becoming
from 15 at 17 UTC to 15 at 20 UTC
Wind 5 kt from the Southeast
Becoming
from 16 at 03 UTC to 16 at 06 UTC
Wind 10 kt from the East

TAF: ESMS 150501Z 1506/1606 15010KT CAVOK BECMG 1506/1507 21010KT BECMG 1517/1520 14005KT BECMG 1603/1606 09010KT

Weather observations and forecasts of more than 4000 airports (METAR and TAF reports).

The available stations are represented by yellow and red dots on the map.

Hover mouse over dot to see the name of the station.

Then click to see weather observations and forecasts.

To change the map : click on the green buttons with a black cross to zoom in, on the green button with a dash to zoom out, or on the green arrows for adjacent maps.


METAR-TAF: